Time;durP1;ratioP1;P1;durP2;ratioP2;P2;SDS_P1;SDS_P2;PMS_P1;PMS_P2;Temp;Humidity;BMP_temperature;BMP_pressure;BME280_temperature;BME280_humidity;BME280_pressure;Samples;Min_cycle;Max_cycle;Signal;HPM_P1;HPM_P2
2021/10/20 00:00:08;;;;;;;;;;;;;;;12.15;67.02;98590.16;1775127;79;20995;-85
2021/10/20 00:02:35;;;;;;;;;;;;;;;12.12;67.02;98595.14;1749344;80;20178;-85
2021/10/20 00:05:01;;;;;;;;;;;;;;;12.07;67.00;98597.27;1750420;80;20225;-85
2021/10/20 00:07:27;;;;;;;;;;;;;;;12.13;67.01;98605.16;1801897;78;20707;-85
2021/10/20 00:09:53;;;;;;;;;;;;;;;12.15;67.03;98611.98;1806593;78;20311;-86
2021/10/20 00:12:22;;;;;;;;;;;;;;;12.19;67.04;98628.80;1800387;78;26148;-85
2021/10/20 00:14:48;;;;;;;;;;;;;;;12.21;67.09;98622.97;1810627;78;24480;-85
2021/10/20 00:17:14;;;;;;;;;;;;;;;12.25;67.12;98612.61;1801767;78;20356;-86
2021/10/20 00:19:40;;;;;;;;;;;;;;;12.30;67.14;98591.63;1805074;78;20235;-86
2021/10/20 00:22:06;;;;;;;;;;;;;;;12.33;67.16;98586.65;1810672;78;22028;-86
2021/10/20 00:24:32;;;;;;;;;;;;;;;12.30;67.15;98577.20;1810393;78;25961;-85
2021/10/20 00:26:58;;;;;;;;;;;;;;;12.27;67.14;98580.55;1809211;78;24707;-86
2021/10/20 00:29:24;;;;;;;;;;;;;;;12.26;67.14;98578.39;1812463;78;20802;-86
2021/10/20 00:31:50;;;;;;;;;;;;;;;12.27;67.15;98588.41;1801769;78;20759;-86
2021/10/20 00:34:17;;;;;;;;;;;;;;;12.26;67.15;98580.17;1806157;78;22167;-86
2021/10/20 00:36:43;;;;;;;;;;;;;;;12.26;67.16;98573.61;1787255;78;26129;-86
2021/10/20 00:39:09;;;;;;;;;;;;;;;12.27;67.16;98565.64;1810347;78;24639;-85
2021/10/20 00:41:35;;;;;;;;;;;;;;;12.27;67.17;98553.83;1805806;78;20788;-85
2021/10/20 00:44:01;;;;;;;;;;;;;;;12.29;67.17;98534.84;1813217;77;24505;-86
2021/10/20 00:46:28;;;;;;;;;;;;;;;12.32;67.18;98536.42;1803393;77;20367;-85
2021/10/20 00:48:55;;;;;;;;;;;;;;;12.32;67.19;98552.17;1806588;78;25998;-86
2021/10/20 00:51:25;;;;;;;;;;;;;;;12.36;67.17;98564.09;1805639;78;24416;-85
2021/10/20 00:53:49;;;;;;;;;;;;;;;12.39;67.21;98562.54;1810793;77;20293;-86
2021/10/20 00:56:15;;;;;;;;;;;;;;;12.43;67.23;98560.07;1799165;78;20206;-86
2021/10/20 00:58:41;;;;;;;;;;;;;;;12.42;67.25;98553.98;1807823;77;20787;-85
2021/10/20 01:01:07;;;;;;;;;;;;;;;12.44;67.26;98557.78;1807747;77;26014;-85
2021/10/20 01:03:33;;;;;;;;;;;;;;;12.46;67.23;98563.77;1833598;76;20888;-86
2021/10/20 01:05:59;;;;;;;;;;;;;;;12.49;67.25;98574.86;1834651;77;20781;-86
2021/10/20 01:08:25;;;;;;;;;;;;;;;12.50;67.23;98562.57;1838910;77;24592;-86
2021/10/20 01:10:51;;;;;;;;;;;;;;;12.53;67.24;98551.38;1771895;79;20352;-86
2021/10/20 01:13:17;;;;;;;;;;;;;;;12.47;67.22;98533.47;1797676;78;26046;-86
2021/10/20 01:15:43;;;;;;;;;;;;;;;12.54;67.22;98549.59;1807353;78;25231;-86
2021/10/20 01:18:11;;;;;;;;;;;;;;;12.56;67.25;98545.05;1809358;78;20209;-86
2021/10/20 01:20:38;;;;;;;;;;;;;;;12.56;67.24;98535.86;1779531;78;24709;-86
2021/10/20 01:23:04;;;;;;;;;;;;;;;12.55;67.21;98524.99;1798951;78;22023;-86
2021/10/20 01:25:30;;;;;;;;;;;;;;;12.50;67.21;98526.66;1813825;78;20957;-86
2021/10/20 01:27:57;;;;;;;;;;;;;;;12.52;67.20;98527.86;1808341;78;24486;-86
2021/10/20 01:30:23;;;;;;;;;;;;;;;12.51;67.22;98519.62;1801623;78;20452;-86
2021/10/20 01:32:49;;;;;;;;;;;;;;;12.52;67.21;98510.33;1806128;78;24584;-86
2021/10/20 01:35:15;;;;;;;;;;;;;;;12.53;67.22;98512.00;1794854;78;22116;-85
2021/10/20 01:37:41;;;;;;;;;;;;;;;12.51;67.21;98508.65;1798276;78;21270;-86
2021/10/20 01:40:09;;;;;;;;;;;;;;;12.48;67.20;98511.52;1807047;78;20928;-86
2021/10/20 01:42:36;;;;;;;;;;;;;;;12.48;67.20;98511.52;1805721;78;20181;-86
2021/10/20 01:45:03;;;;;;;;;;;;;;;12.49;67.24;98514.48;1807065;78;25129;-85
2021/10/20 01:47:29;;;;;;;;;;;;;;;12.51;67.26;98517.00;1799394;78;22056;-86
2021/10/20 01:49:55;;;;;;;;;;;;;;;12.56;67.29;98520.95;1795772;77;25930;-86
2021/10/20 01:52:21;;;;;;;;;;;;;;;12.56;67.31;98522.26;1791650;79;24460;-86
2021/10/20 01:54:48;;;;;;;;;;;;;;;12.60;67.33;98519.41;1749974;81;20503;-86
2021/10/20 01:57:14;;;;;;;;;;;;;;;12.63;67.34;98522.63;1722072;81;24588;-85
2021/10/20 01:59:40;;;;;;;;;;;;;;;12.63;67.35;98515.23;1751977;81;22097;-86
2021/10/20 02:02:07;;;;;;;;;;;;;;;12.63;67.35;98519.16;1752695;81;26024;-85
2021/10/20 02:04:35;;;;;;;;;;;;;;;12.64;67.36;98524.31;1703294;81;25257;-86
2021/10/20 02:07:00;;;;;;;;;;;;;;;12.65;67.35;98516.80;1739136;80;20234;-86
2021/10/20 02:09:26;;;;;;;;;;;;;;;12.66;67.35;98520.23;1789884;78;20750;-86
2021/10/20 02:11:52;;;;;;;;;;;;;;;12.67;67.36;98516.66;1776573;78;20844;-86
2021/10/20 02:14:23;;;;;;;;;;;;;;;12.70;67.41;98521.69;1784379;80;21238;-86
2021/10/20 02:16:49;;;;;;;;;;;;;;;12.72;67.43;98520.60;1781032;80;24539;-86
2021/10/20 02:19:15;;;;;;;;;;;;;;;12.71;67.47;98515.48;1782995;78;20305;-86
2021/10/20 02:21:42;;;;;;;;;;;;;;;12.69;67.49;98526.10;1771818;79;20256;-86
2021/10/20 02:24:09;;;;;;;;;;;;;;;12.64;67.50;98516.91;1796144;79;22120;-86
2021/10/20 02:26:35;;;;;;;;;;;;;;;12.61;67.52;98509.25;1794713;78;21024;-86
2021/10/20 02:29:01;;;;;;;;;;;;;;;12.64;67.54;98515.59;1798042;78;20293;-86
2021/10/20 02:31:29;;;;;;;;;;;;;;;12.66;67.57;98505.79;1795271;77;20396;-86
2021/10/20 02:33:55;;;;;;;;;;;;;;;12.68;67.61;98506.52;1787183;79;24685;-85
2021/10/20 02:36:21;;;;;;;;;;;;;;;12.63;67.61;98496.85;1770734;79;22081;-85
2021/10/20 02:38:46;;;;;;;;;;;;;;;12.61;67.63;98493.50;1784061;79;20909;-86
2021/10/20 02:41:13;;;;;;;;;;;;;;;12.55;67.62;98484.30;1781205;80;24395;-85
2021/10/20 02:43:39;;;;;;;;;;;;;;;12.50;67.66;98479.89;1779846;80;20517;-86
2021/10/20 02:46:05;;;;;;;;;;;;;;;12.47;67.70;98480.13;1777724;80;24756;-85
2021/10/20 02:48:36;;;;;;;;;;;;;;;12.47;67.73;98485.38;1785170;80;23225;-85
2021/10/20 02:51:02;;;;;;;;;;;;;;;12.49;67.77;98490.05;1783602;80;26170;-86
2021/10/20 02:53:28;;;;;;;;;;;;;;;12.52;67.83;98490.64;1785020;80;24488;-85
2021/10/20 02:55:54;;;;;;;;;;;;;;;12.57;67.88;98481.09;1784448;80;20269;-85
2021/10/20 02:58:20;;;;;;;;;;;;;;;12.64;67.95;98476.20;1784393;80;20780;-86
2021/10/20 03:00:46;;;;;;;;;;;;;;;12.67;68.01;98475.95;1783485;80;21986;-86
2021/10/20 03:03:12;;;;;;;;;;;;;;;12.70;68.06;98482.30;1786396;79;21005;-86
2021/10/20 03:05:38;;;;;;;;;;;;;;;12.72;68.10;98481.69;1777857;80;20250;-86
2021/10/20 03:08:04;;;;;;;;;;;;;;;12.74;68.16;98477.16;1790209;78;20296;-86
2021/10/20 03:10:30;;;;;;;;;;;;;;;12.77;68.20;98479.53;1795275;77;20724;-86
2021/10/20 03:12:56;;;;;;;;;;;;;;;12.81;68.26;98473.95;1832990;76;20408;-86
2021/10/20 03:15:22;;;;;;;;;;;;;;;12.83;68.30;98471.18;1785194;79;20973;-86
2021/10/20 03:17:51;;;;;;;;;;;;;;;12.86;68.35;98471.80;1744705;80;20872;-86
2021/10/20 03:20:18;;;;;;;;;;;;;;;12.84;68.39;98461.87;1765655;81;20200;-86
2021/10/20 03:22:44;;;;;;;;;;;;;;;12.83;68.42;98470.70;1763719;79;24567;-86
2021/10/20 03:25:12;;;;;;;;;;;;;;;12.85;68.46;98471.91;1749997;81;22030;-86
2021/10/20 03:27:42;;;;;;;;;;;;;;;12.87;68.51;98475.27;1778643;78;26062;-86
2021/10/20 03:30:09;;;;;;;;;;;;;;;12.89;68.58;98473.33;1782373;78;24699;-86
2021/10/20 03:32:34;;;;;;;;;;;;;;;12.90;68.65;98474.53;1772372;78;20216;-85
2021/10/20 03:35:00;;;;;;;;;;;;;;;12.90;68.71;98464.02;1792187;78;20299;-86
2021/10/20 03:37:26;;;;;;;;;;;;;;;12.93;68.75;98483.47;1771809;78;20333;-86
2021/10/20 03:39:52;;;;;;;;;;;;;;;12.94;68.83;98488.25;1770600;78;25573;-86
2021/10/20 03:42:19;;;;;;;;;;;;;;;12.97;68.90;98494.59;1767681;78;20278;-86
2021/10/20 03:44:45;;;;;;;;;;;;;;;12.96;68.96;98499.01;1780719;78;20258;-86
2021/10/20 03:47:11;;;;;;;;;;;;;;;13.02;69.04;98504.73;1751880;80;24610;-86
2021/10/20 03:49:37;;;;;;;;;;;;;;;13.04;69.12;98503.64;1754374;80;20213;-86
2021/10/20 03:52:04;;;;;;;;;;;;;;;13.06;69.17;98503.05;1754738;81;21023;-86
2021/10/20 03:54:30;;;;;;;;;;;;;;;13.06;69.22;98510.09;1748555;81;24505;-86
2021/10/20 03:56:56;;;;;;;;;;;;;;;13.09;69.27;98509.88;1748869;80;20781;-85
2021/10/20 03:59:22;;;;;;;;;;;;;;;13.09;69.34;98502.80;1747663;79;20254;-86
2021/10/20 04:01:48;;;;;;;;;;;;;;;13.10;69.38;98501.01;1784984;79;22059;-86
2021/10/20 04:04:14;;;;;;;;;;;;;;;13.06;69.44;98498.27;1746240;80;25987;-86
2021/10/20 04:06:41;;;;;;;;;;;;;;;13.06;69.49;98496.48;1750227;81;37545;-85
2021/10/20 04:09:08;;;;;;;;;;;;;;;13.08;69.52;98491.95;1757930;80;20252;-85
2021/10/20 04:11:34;;;;;;;;;;;;;;;13.09;69.59;98498.86;1748369;80;25276;-86
2021/10/20 04:14:00;;;;;;;;;;;;;;;13.06;69.67;98493.02;1768072;80;20255;-86
2021/10/20 04:16:32;;;;;;;;;;;;;;;13.03;69.72;98495.42;1767708;80;21046;-86
2021/10/20 04:18:58;;;;;;;;;;;;;;;13.02;69.79;98494.23;1764196;80;24620;-86
2021/10/20 04:21:24;;;;;;;;;;;;;;;12.98;69.85;98491.83;1763192;79;20774;-86
2021/10/20 04:23:50;;;;;;;;;;;;;;;12.98;69.91;98484.45;1797234;78;20796;-86
2021/10/20 04:26:16;;;;;;;;;;;;;;;12.96;69.98;98481.94;1764283;79;22612;-86
2021/10/20 04:28:42;;;;;;;;;;;;;;;12.94;70.06;98473.33;1771023;80;26098;-86
2021/10/20 04:31:08;;;;;;;;;;;;;;;12.96;70.10;98470.11;1764860;80;20269;-86
2021/10/20 04:33:34;;;;;;;;;;;;;;;12.97;70.17;98465.70;1767441;80;20240;-86
2021/10/20 04:36:02;;;;;;;;;;;;;;;12.95;70.23;98463.66;1773147;79;22600;-85
2021/10/20 04:38:28;;;;;;;;;;;;;;;12.94;70.29;98462.82;1743752;80;22103;-86
2021/10/20 04:40:54;;;;;;;;;;;;;;;12.94;70.32;98448.84;1797032;78;25996;-85
2021/10/20 04:43:23;;;;;;;;;;;;;;;12.92;70.36;98443.73;1757373;81;24476;-85
2021/10/20 04:45:51;;;;;;;;;;;;;;;12.91;70.39;98433.34;1759229;80;20492;-85
2021/10/20 04:48:17;;;;;;;;;;;;;;;12.93;70.44;98424.84;1752718;81;24694;-86
2021/10/20 04:50:43;;;;;;;;;;;;;;;12.89;70.46;98428.67;1834404;77;21517;-86
2021/10/20 04:53:09;;;;;;;;;;;;;;;12.87;70.49;98426.67;1831861;77;25992;-86
2021/10/20 04:55:35;;;;;;;;;;;;;;;12.86;70.50;98402.20;1833171;77;20874;-86
2021/10/20 04:58:07;;;;;;;;;;;;;;;12.84;70.53;98400.16;1827301;77;20324;-86
2021/10/20 05:00:32;;;;;;;;;;;;;;;12.81;70.56;98385.97;1783250;79;24846;-86
2021/10/20 05:02:58;;;;;;;;;;;;;;;12.80;70.60;98379.52;1753966;81;20294;-86
2021/10/20 05:05:24;;;;;;;;;;;;;;;12.77;70.64;98368.77;1732942;79;25971;-86
2021/10/20 05:07:54;;;;;;;;;;;;;;;12.77;70.66;98369.24;1761550;79;20313;-87
2021/10/20 05:10:21;;;;;;;;;;;;;;;12.75;70.69;98369.86;1758517;81;20580;-86
2021/10/20 05:12:47;;;;;;;;;;;;;;;12.71;70.71;98386.83;1754188;80;25311;-86
2021/10/20 05:15:14;;;;;;;;;;;;;;;12.69;70.74;98390.03;1807261;78;22208;-86
2021/10/20 05:17:40;;;;;;;;;;;;;;;12.68;70.77;98373.45;1763796;81;26193;-86
2021/10/20 05:20:13;;;;;;;;;;;;;;;12.67;70.81;98372.25;1815148;78;24486;-85
2021/10/20 05:22:40;;;;;;;;;;;;;;;12.68;70.83;98370.82;1799780;78;20160;-86
2021/10/20 05:25:09;;;;;;;;;;;;;;;12.65;70.87;98372.87;1761517;81;24552;-85
2021/10/20 05:27:35;;;;;;;;;;;;;;;12.64;70.90;98360.21;1802244;78;22066;-85
2021/10/20 05:30:02;;;;;;;;;;;;;;;12.64;70.94;98354.96;1788749;78;25878;-86
2021/10/20 05:32:28;;;;;;;;;;;;;;;12.65;70.97;98357.95;1799463;78;24492;-86
2021/10/20 05:34:55;;;;;;;;;;;;;;;12.65;71.00;98363.20;1747564;81;20476;-86
2021/10/20 05:37:22;;;;;;;;;;;;;;;12.64;71.04;98362.00;1751879;81;25209;-85
2021/10/20 05:39:48;;;;;;;;;;;;;;;12.64;71.09;98368.09;1816676;77;21997;-86
2021/10/20 05:42:15;;;;;;;;;;;;;;;12.63;71.14;98374.77;1787683;78;26012;-85
2021/10/20 05:44:41;;;;;;;;;;;;;;;12.61;71.19;98365.69;1794163;78;24609;-86
2021/10/20 05:47:08;;;;;;;;;;;;;;;12.63;71.22;98367.73;1755204;80;20542;-86
2021/10/20 05:49:34;;;;;;;;;;;;;;;12.63;71.26;98369.52;1825629;77;24516;-85
2021/10/20 05:52:00;;;;;;;;;;;;;;;12.63;71.30;98368.20;1823675;77;21968;-86
2021/10/20 05:54:26;;;;;;;;;;;;;;;12.65;71.33;98363.67;1790646;79;20960;-86
2021/10/20 05:56:52;;;;;;;;;;;;;;;12.65;71.39;98355.80;1741905;81;24428;-86
2021/10/20 05:59:22;;;;;;;;;;;;;;;12.66;71.45;98366.16;1772514;79;20189;-86
2021/10/20 06:01:46;;;;;;;;;;;;;;;12.66;71.49;98356.97;1737505;81;25140;-86
2021/10/20 06:04:18;;;;;;;;;;;;;;;12.66;71.55;98352.19;1753320;80;22018;-86
2021/10/20 06:06:45;;;;;;;;;;;;;;;12.68;71.59;98335.84;1778717;79;26073;-86
2021/10/20 06:09:11;;;;;;;;;;;;;;;12.68;71.64;98344.56;1776525;79;24524;-85
2021/10/20 06:11:37;;;;;;;;;;;;;;;12.67;71.69;98345.52;1747719;81;20515;-86
2021/10/20 06:14:03;;;;;;;;;;;;;;;12.69;71.74;98338.36;1754051;79;24543;-85
2021/10/20 06:16:32;;;;;;;;;;;;;;;12.70;71.79;98335.26;1786080;79;22927;-86
2021/10/20 06:18:58;;;;;;;;;;;;;;;12.72;71.85;98335.48;1784323;80;26006;-86
2021/10/20 06:21:24;;;;;;;;;;;;;;;12.75;71.92;98334.41;1781286;80;20245;-85
2021/10/20 06:23:51;;;;;;;;;;;;;;;12.76;72.00;98332.98;1783076;80;20199;-86
2021/10/20 06:26:19;;;;;;;;;;;;;;;12.79;72.08;98325.32;1780948;80;25445;-86
2021/10/20 06:28:45;;;;;;;;;;;;;;;12.82;72.16;98333.78;1783997;80;22231;-86
2021/10/20 06:31:11;;;;;;;;;;;;;;;12.86;72.24;98344.41;1780162;80;21012;-86
2021/10/20 06:33:37;;;;;;;;;;;;;;;12.90;72.30;98348.45;1780232;80;20434;-86
2021/10/20 06:36:04;;;;;;;;;;;;;;;12.94;72.37;98351.66;1781593;80;20463;-86
2021/10/20 06:38:31;;;;;;;;;;;;;;;12.97;72.43;98339.61;1782305;79;24696;-86
2021/10/20 06:40:57;;;;;;;;;;;;;;;12.99;72.50;98345.07;1785352;79;22078;-86
2021/10/20 06:43:23;;;;;;;;;;;;;;;13.04;72.56;98347.83;1783047;80;25981;-86
2021/10/20 06:45:49;;;;;;;;;;;;;;;13.07;72.60;98348.41;1779585;80;20254;-86
2021/10/20 06:48:15;;;;;;;;;;;;;;;13.10;72.64;98363.06;1781986;80;20478;-86
2021/10/20 06:50:42;;;;;;;;;;;;;;;13.11;72.69;98359.48;1780937;79;24527;-86
2021/10/20 06:53:08;;;;;;;;;;;;;;;13.12;72.73;98360.72;1776004;80;22054;-86
2021/10/20 06:55:34;;;;;;;;;;;;;;;13.17;72.77;98357.71;1784546;80;25979;-86
2021/10/20 06:58:00;;;;;;;;;;;;;;;13.20;72.83;98360.11;1780937;80;24423;-86
2021/10/20 07:00:26;;;;;;;;;;;;;;;13.22;72.88;98354.22;1782748;80;20223;-86
2021/10/20 07:02:52;;;;;;;;;;;;;;;13.27;72.93;98373.08;1780533;80;20278;-86
2021/10/20 07:05:18;;;;;;;;;;;;;;;13.32;72.96;98364.33;1776581;80;20861;-86
2021/10/20 07:07:44;;;;;;;;;;;;;;;13.38;73.01;98367.77;1784831;79;25945;-85
2021/10/20 07:10:10;;;;;;;;;;;;;;;13.39;73.05;98362.40;1781310;80;20258;-86
2021/10/20 07:12:37;;;;;;;;;;;;;;;13.46;73.10;98366.68;1782226;78;20368;-86
2021/10/20 07:15:03;;;;;;;;;;;;;;;13.49;73.09;98365.09;1762815;80;24744;-86
2021/10/20 07:17:29;;;;;;;;;;;;;;;13.54;73.13;98366.86;1783467;80;22054;-86
2021/10/20 07:19:55;;;;;;;;;;;;;;;13.57;73.15;98361.84;1814003;77;21093;-86
2021/10/20 07:22:21;;;;;;;;;;;;;;;13.61;73.16;98366.72;1828549;77;24507;-86
2021/10/20 07:24:47;;;;;;;;;;;;;;;13.64;73.14;98360.35;1826845;77;20539;-86
2021/10/20 07:27:13;;;;;;;;;;;;;;;13.67;73.14;98363.58;1796106;79;24532;-86
2021/10/20 07:29:40;;;;;;;;;;;;;;;13.69;73.11;98364.27;1751840;79;20230;-86
2021/10/20 07:32:07;;;;;;;;;;;;;;;13.71;73.12;98355.78;1752243;79;26027;-86
2021/10/20 07:34:34;;;;;;;;;;;;;;;13.77;73.07;98353.11;1789551;79;24163;-86
2021/10/20 07:37:00;;;;;;;;;;;;;;;13.81;73.03;98350.09;1748319;81;20168;-86
2021/10/20 07:39:26;;;;;;;;;;;;;;;13.87;73.01;98346.59;1743116;79;20751;-86
2021/10/20 07:41:52;;;;;;;;;;;;;;;13.92;73.02;98347.03;1757075;80;22049;-86
2021/10/20 07:44:18;;;;;;;;;;;;;;;13.98;72.98;98351.78;1790272;78;20949;-86
2021/10/20 07:46:44;;;;;;;;;;;;;;;14.04;72.95;98353.41;1751061;79;24456;-86
2021/10/20 07:49:10;;;;;;;;;;;;;;;14.11;72.87;98352.41;1787462;78;20324;-86
2021/10/20 07:51:39;;;;;;;;;;;;;;;14.16;72.83;98346.27;1732688;81;24847;-86
2021/10/20 07:54:05;;;;;;;;;;;;;;;14.22;72.77;98350.53;1808217;78;20337;-86
2021/10/20 07:56:35;;;;;;;;;;;;;;;14.28;72.74;98345.70;1807361;78;21000;-86
2021/10/20 07:59:02;;;;;;;;;;;;;;;14.33;72.70;98339.08;1750439;81;25261;-86
2021/10/20 08:01:28;;;;;;;;;;;;;;;14.39;72.68;98339.89;1738672;80;20198;-86
2021/10/20 08:03:54;;;;;;;;;;;;;;;14.43;72.64;98347.03;1755439;80;24526;-86
2021/10/20 08:06:20;;;;;;;;;;;;;;;14.47;72.59;98349.27;1753662;80;20867;-86
2021/10/20 08:08:46;;;;;;;;;;;;;;;14.54;72.55;98347.77;1765638;79;26070;-86
2021/10/20 08:11:12;;;;;;;;;;;;;;;14.59;72.52;98342.93;1765623;80;20887;-86
2021/10/20 08:13:38;;;;;;;;;;;;;;;14.66;72.50;98343.23;1759327;78;20315;-87
2021/10/20 08:16:04;;;;;;;;;;;;;;;14.73;72.43;98339.58;1745846;80;20299;-86
2021/10/20 08:18:30;;;;;;;;;;;;;;;14.78;72.38;98337.38;1764921;80;22103;-87
2021/10/20 08:20:56;;;;;;;;;;;;;;;14.84;72.33;98323.63;1752530;80;26043;-87
2021/10/20 08:23:22;;;;;;;;;;;;;;;14.88;72.27;98326.36;1753697;79;20228;-88
2021/10/20 08:25:48;;;;;;;;;;;;;;;14.92;72.21;98327.27;1755175;80;20253;-87
2021/10/20 08:28:14;;;;;;;;;;;;;;;14.98;72.18;98324.56;1757328;81;20362;-87
2021/10/20 08:30:40;;;;;;;;;;;;;;;15.01;72.14;98319.00;1756242;81;20783;-87
2021/10/20 08:33:07;;;;;;;;;;;;;;;15.04;72.04;98324.02;1760768;81;26023;-87
2021/10/20 08:35:33;;;;;;;;;;;;;;;15.04;71.93;98313.48;1755792;81;24509;-87
2021/10/20 08:38:03;;;;;;;;;;;;;;;15.07;71.83;98318.45;1729265;81;20248;-86
2021/10/20 08:40:33;;;;;;;;;;;;;;;15.10;71.73;98317.36;1750556;81;24671;-86
2021/10/20 08:42:59;;;;;;;;;;;;;;;15.16;71.64;98316.81;1760575;81;22040;-86
2021/10/20 08:45:28;;;;;;;;;;;;;;;15.19;71.57;98317.36;1750115;81;21048;-86
2021/10/20 08:47:54;;;;;;;;;;;;;;;15.24;71.43;98312.98;1765332;81;24628;-86
2021/10/20 08:50:27;;;;;;;;;;;;;;;15.28;71.37;98309.09;1756591;81;20150;-86
2021/10/20 08:52:54;;;;;;;;;;;;;;;15.31;71.35;98309.66;1763623;81;24708;-86
2021/10/20 08:55:20;;;;;;;;;;;;;;;15.37;71.26;98307.79;1765437;81;22046;-86
2021/10/20 08:57:49;;;;;;;;;;;;;;;15.45;71.20;98303.11;1726996;80;25985;-86
2021/10/20 09:00:16;;;;;;;;;;;;;;;15.55;71.14;98298.68;1758760;81;24505;-85
2021/10/20 09:02:42;;;;;;;;;;;;;;;15.60;71.09;98295.64;1752191;81;20425;-86
2021/10/20 09:05:09;;;;;;;;;;;;;;;15.66;71.00;98304.28;1760789;80;24605;-86
2021/10/20 09:07:37;;;;;;;;;;;;;;;15.73;70.92;98298.30;1756894;81;22113;-86
2021/10/20 09:10:04;;;;;;;;;;;;;;;15.78;70.77;98290.79;1754627;81;26664;-86
2021/10/20 09:12:36;;;;;;;;;;;;;;;15.83;70.64;98279.80;1755556;81;24582;-86
2021/10/20 09:15:00;;;;;;;;;;;;;;;15.86;70.53;98273.77;1763518;80;20253;-86
2021/10/20 09:17:28;;;;;;;;;;;;;;;15.91;70.38;98270.69;1766680;78;24611;-86
2021/10/20 09:19:58;;;;;;;;;;;;;;;15.95;70.22;98275.19;1750865;80;22210;-86
2021/10/20 09:22:24;;;;;;;;;;;;;;;15.97;70.08;98284.63;1799486;78;26094;-86
2021/10/20 09:24:50;;;;;;;;;;;;;;;16.02;69.89;98271.83;1752520;79;24520;-86
2021/10/20 09:27:18;;;;;;;;;;;;;;;16.06;69.75;98265.77;1750682;80;20325;-86
2021/10/20 09:29:44;;;;;;;;;;;;;;;16.13;69.66;98266.37;1759375;79;24727;-87
2021/10/20 09:32:10;;;;;;;;;;;;;;;16.21;69.47;98270.90;1763263;80;21967;-87
2021/10/20 09:34:40;;;;;;;;;;;;;;;16.25;69.38;98269.16;1762846;81;26082;-86
2021/10/20 09:37:07;;;;;;;;;;;;;;;16.31;69.30;98268.55;1761871;80;24534;-87
2021/10/20 09:39:34;;;;;;;;;;;;;;;16.39;69.17;98262.55;1761747;80;20171;-86
2021/10/20 09:42:10;;;;;;;;;;;;;;;16.42;69.03;98259.59;1764765;80;24274;-87
2021/10/20 09:44:50;;;;;;;;;;;;;;;16.48;68.85;98257.69;1764858;79;21968;-86
2021/10/20 09:47:23;;;;;;;;;;;;;;;16.57;68.61;98254.66;1760937;80;26090;-87
2021/10/20 09:49:50;;;;;;;;;;;;;;;16.62;68.38;98244.50;1760919;80;24506;-87
2021/10/20 09:52:20;;;;;;;;;;;;;;;16.65;68.22;98245.52;1760722;79;20225;-87
2021/10/20 09:54:49;;;;;;;;;;;;;;;16.64;67.95;98249.96;1763088;79;24627;-87
2021/10/20 09:57:14;;;;;;;;;;;;;;;16.61;67.70;98247.63;1764174;80;22033;-87
2021/10/20 09:59:41;;;;;;;;;;;;;;;16.60;67.50;98246.45;1761395;80;25601;-86
2021/10/20 10:02:08;;;;;;;;;;;;;;;16.66;67.34;98240.09;1762052;80;24520;-87
2021/10/20 10:04:37;;;;;;;;;;;;;;;16.71;67.22;98238.31;1758555;80;20252;-88
2021/10/20 10:07:04;;;;;;;;;;;;;;;16.74;67.04;98239.34;1764185;80;25236;-87
2021/10/20 10:09:30;;;;;;;;;;;;;;;16.79;66.83;98227.83;1764515;80;22082;-87
2021/10/20 10:11:58;;;;;;;;;;;;;;;16.79;66.64;98229.16;1763107;79;25943;-87
2021/10/20 10:14:26;;;;;;;;;;;;;;;16.77;66.43;98218.37;1771468;79;25114;-87
2021/10/20 10:16:59;;;;;;;;;;;;;;;16.79;66.24;98214.62;1773417;79;20511;-88
2021/10/20 10:19:30;;;;;;;;;;;;;;;16.78;66.07;98206.34;1765971;80;25257;-88
2021/10/20 10:22:00;;;;;;;;;;;;;;;16.82;65.96;98202.89;1761021;80;21670;-87
2021/10/20 10:24:35;;;;;;;;;;;;;;;16.87;65.87;98196.66;1777660;80;26083;-88
2021/10/20 10:27:06;;;;;;;;;;;;;;;16.93;65.76;98200.84;1839552;77;24357;-88
2021/10/20 10:29:34;;;;;;;;;;;;;;;17.04;65.63;98184.75;1815394;77;20606;-88
2021/10/20 10:32:02;;;;;;;;;;;;;;;17.18;65.42;98183.38;1779991;79;25090;-88
2021/10/20 10:34:37;;;;;;;;;;;;;;;17.30;65.26;98191.38;1799620;78;22069;-87
2021/10/20 10:37:04;;;;;;;;;;;;;;;17.38;65.12;98190.61;1787584;79;26060;-87
2021/10/20 10:39:30;;;;;;;;;;;;;;;17.43;65.00;98192.29;1792555;78;24494;-87
2021/10/20 10:41:58;;;;;;;;;;;;;;;17.47;64.78;98189.66;1774845;78;20451;-88
2021/10/20 10:44:33;;;;;;;;;;;;;;;17.45;64.57;98183.23;1801450;78;24500;-88
2021/10/20 10:47:27;;;;;;;;;;;;;;;17.45;64.33;98175.29;1788084;78;22158;-88
2021/10/20 10:49:54;;;;;;;;;;;;;;;17.45;64.14;98170.48;1799660;78;26148;-88
2021/10/20 10:52:21;;;;;;;;;;;;;;;17.49;63.88;98163.89;1797240;78;24563;-87
2021/10/20 10:55:08;;;;;;;;;;;;;;;17.53;63.64;98158.12;1788144;78;20277;-87
2021/10/20 10:57:54;;;;;;;;;;;;;;;17.58;63.44;98155.83;1789487;79;24540;-87
2021/10/20 11:00:22;;;;;;;;;;;;;;;17.70;63.27;98147.64;1783974;79;22059;-87
2021/10/20 11:02:56;;;;;;;;;;;;;;;17.77;63.06;98140.25;1760511;80;26614;-87
2021/10/20 11:05:23;;;;;;;;;;;;;;;17.84;62.84;98135.95;1753472;80;25370;-87
2021/10/20 11:07:50;;;;;;;;;;;;;;;17.92;62.61;98132.02;1771233;79;20151;-87
2021/10/20 11:10:17;;;;;;;;;;;;;;;18.00;62.46;98130.40;1833254;76;24463;-87
2021/10/20 11:12:47;;;;;;;;;;;;;;;17.96;62.27;98124.08;1836596;77;22750;-87
2021/10/20 11:15:14;;;;;;;;;;;;;;;17.89;62.02;98115.64;1826279;76;26171;-87
2021/10/20 11:17:40;;;;;;;;;;;;;;;17.85;61.85;98115.11;1831427;77;24540;-88
2021/10/20 11:20:11;;;;;;;;;;;;;;;17.79;61.68;98101.68;1830765;78;20331;-87
2021/10/20 11:22:37;;;;;;;;;;;;;;;17.78;61.45;98100.84;1828311;77;24733;-87
2021/10/20 11:25:08;;;;;;;;;;;;;;;17.69;61.29;98096.52;1819676;77;21997;-87
2021/10/20 11:27:34;;;;;;;;;;;;;;;17.64;61.15;98097.50;1783370;79;26768;-87
2021/10/20 11:30:00;;;;;;;;;;;;;;;17.61;61.03;98096.52;1753389;80;24450;-87
2021/10/20 11:32:26;;;;;;;;;;;;;;;17.61;60.86;98088.58;1773110;79;20558;-87
2021/10/20 11:34:54;;;;;;;;;;;;;;;17.57;60.73;98081.88;1815778;77;20435;-87
2021/10/20 11:37:23;;;;;;;;;;;;;;;17.48;60.40;98070.45;1810930;77;22082;-87
2021/10/20 11:39:50;;;;;;;;;;;;;;;17.43;60.17;98068.78;1787942;78;26138;-87
2021/10/20 11:42:16;;;;;;;;;;;;;;;17.40;60.01;98052.41;1797625;78;24517;-87
2021/10/20 11:44:42;;;;;;;;;;;;;;;17.37;59.88;98050.89;1800216;78;20264;-87
2021/10/20 11:47:10;;;;;;;;;;;;;;;17.38;59.71;98039.83;1754956;80;24582;-87
2021/10/20 11:49:38;;;;;;;;;;;;;;;17.44;59.54;98043.16;1753004;81;22628;-87
2021/10/20 11:52:05;;;;;;;;;;;;;;;17.51;59.41;98030.44;1726570;79;25970;-87
2021/10/20 11:54:31;;;;;;;;;;;;;;;17.59;59.30;98033.61;1785632;79;25211;-88
2021/10/20 11:56:58;;;;;;;;;;;;;;;17.64;59.20;98034.48;1757314;80;20181;-87
2021/10/20 11:59:26;;;;;;;;;;;;;;;17.71;58.98;98035.01;1757510;79;24549;-88
2021/10/20 12:01:52;;;;;;;;;;;;;;;17.81;58.72;98040.16;1760996;79;21995;-88
2021/10/20 12:04:19;;;;;;;;;;;;;;;17.88;58.47;98028.77;1763503;80;26124;-88
2021/10/20 12:06:47;;;;;;;;;;;;;;;17.91;58.29;98027.09;1765847;80;24490;-88
2021/10/20 12:09:14;;;;;;;;;;;;;;;17.96;58.13;98013.37;1766398;80;20238;-88
2021/10/20 12:11:42;;;;;;;;;;;;;;;17.97;58.01;98011.89;1800962;78;24603;-87
2021/10/20 12:14:09;;;;;;;;;;;;;;;17.92;57.89;98003.61;1770019;78;21959;-87
2021/10/20 12:16:38;;;;;;;;;;;;;;;17.98;57.62;98004.78;1741485;81;25646;-87
2021/10/20 12:19:04;;;;;;;;;;;;;;;18.00;57.48;97996.19;1716726;82;24452;-88
2021/10/20 12:21:32;;;;;;;;;;;;;;;18.05;57.46;98001.81;1726475;81;20444;-87
2021/10/20 12:23:59;;;;;;;;;;;;;;;18.12;57.41;97986.06;1715932;83;25011;-87
2021/10/20 12:26:29;;;;;;;;;;;;;;;18.13;57.20;97988.56;1746910;81;21880;-87
2021/10/20 12:28:55;;;;;;;;;;;;;;;18.15;57.00;97975.16;1711073;83;26781;-88
2021/10/20 12:31:25;;;;;;;;;;;;;;;18.17;56.79;97980.61;1729081;82;24643;-87
2021/10/20 12:33:52;;;;;;;;;;;;;;;18.20;56.68;97980.78;1745949;82;20161;-87
2021/10/20 12:36:20;;;;;;;;;;;;;;;18.24;56.55;97970.18;1730019;82;24557;-87
2021/10/20 12:38:46;;;;;;;;;;;;;;;18.25;56.40;97975.81;1727623;82;21929;-87
2021/10/20 12:41:14;;;;;;;;;;;;;;;18.26;56.25;97971.69;1733570;82;25989;-86
2021/10/20 12:43:48;;;;;;;;;;;;;;;18.27;56.07;97971.98;1735072;82;24692;-87
2021/10/20 12:46:14;;;;;;;;;;;;;;;18.26;55.91;97963.73;1711398;82;20336;-87